Time;durP1;ratioP1;P1;durP2;ratioP2;P2;SDS_P1;SDS_P2;PMS_P1;PMS_P2;Temp;Humidity;BMP_temperature;BMP_pressure;BME280_temperature;BME280_humidity;BME280_pressure;Samples;Min_cycle;Max_cycle;Signal;HPM_P1;HPM_P2
2023/08/31 00:00:51;;;;;;;7.97;3.45;;;18.10;99.90;;;;;;5032274;28;20029;-82
2023/08/31 00:03:17;;;;;;;8.93;4.50;;;18.00;99.90;;;;;;5030321;28;20120;-84
2023/08/31 00:05:43;;;;;;;5.93;3.90;;;18.10;99.90;;;;;;5031826;28;20207;-81
2023/08/31 00:08:11;;;;;;;6.10;3.67;;;18.10;99.90;;;;;;5031746;28;20035;-81
2023/08/31 00:10:37;;;;;;;10.02;4.22;;;18.20;99.90;;;;;;5031561;28;20087;-84
2023/08/31 00:13:06;;;;;;;7.68;3.55;;;18.20;99.90;;;;;;5028563;28;20033;-83
2023/08/31 00:15:34;;;;;;;7.32;4.03;;;18.20;99.90;;;;;;5026570;28;20047;-82
2023/08/31 00:18:01;;;;;;;7.45;3.85;;;18.20;99.90;;;;;;5025149;28;20025;-84
2023/08/31 00:20:26;;;;;;;6.60;4.28;;;18.20;99.90;;;;;;5020296;28;20140;-83
2023/08/31 00:22:53;;;;;;;5.68;3.75;;;18.10;99.90;;;;;;5031852;28;20268;-82
2023/08/31 00:25:18;;;;;;;9.60;3.95;;;18.10;99.90;;;;;;5031493;28;20397;-84
2023/08/31 00:27:48;;;;;;;8.77;3.70;;;18.10;99.90;;;;;;5031884;28;20018;-84
2023/08/31 00:30:14;;;;;;;9.55;3.72;;;18.00;99.90;;;;;;5031462;28;20108;-83
2023/08/31 00:32:42;;;;;;;8.05;3.63;;;18.00;99.90;;;;;;5031494;28;20465;-85
2023/08/31 00:35:09;;;;;;;6.65;3.40;;;18.00;99.90;;;;;;5013697;28;20124;-83
2023/08/31 00:37:35;;;;;;;6.85;4.10;;;17.90;99.90;;;;;;5031263;28;20025;-84
2023/08/31 00:40:04;;;;;;;6.35;4.45;;;17.80;99.90;;;;;;5013173;28;20045;-85
2023/08/31 00:42:30;;;;;;;7.00;4.03;;;17.70;99.90;;;;;;5013235;28;20029;-78
2023/08/31 00:44:57;;;;;;;6.32;4.45;;;17.70;99.90;;;;;;5013544;28;20046;-85
2023/08/31 00:47:22;;;;;;;7.28;4.75;;;17.80;99.90;;;;;;5009213;28;20029;-83
2023/08/31 00:49:49;;;;;;;9.93;4.38;;;17.80;99.90;;;;;;5031478;28;20477;-84
2023/08/31 00:52:15;;;;;;;5.57;3.85;;;17.80;99.90;;;;;;5029728;28;20078;-81
2023/08/31 00:54:42;;;;;;;7.32;3.88;;;17.80;99.90;;;;;;5031301;28;20038;-81
2023/08/31 00:57:09;;;;;;;7.85;3.88;;;17.80;99.90;;;;;;5013883;28;20025;-80
2023/08/31 00:59:36;;;;;;;6.80;4.35;;;17.70;99.90;;;;;;5031174;28;20159;-82
2023/08/31 01:02:30;;;;;;;7.15;3.90;;;17.70;99.90;;;;;;5026203;28;20029;-80
2023/08/31 01:05:15;;;;;;;10.88;4.53;;;17.70;99.90;;;;;;5013169;28;20087;-81
2023/08/31 01:07:56;;;;;;;6.97;3.90;;;17.70;99.90;;;;;;5013127;28;20026;-81
2023/08/31 01:10:40;;;;;;;5.50;4.05;;;17.60;99.90;;;;;;5031204;28;20040;-82
2023/08/31 01:13:19;;;;;;;8.30;4.60;;;17.60;99.90;;;;;;5032142;28;20029;-83
2023/08/31 01:15:50;;;;;;;8.32;4.90;;;17.50;99.90;;;;;;5028603;28;20080;-81
2023/08/31 01:18:19;;;;;;;7.32;4.40;;;17.60;99.90;;;;;;5029656;28;20037;-83
2023/08/31 01:21:02;;;;;;;8.35;4.68;;;17.60;99.90;;;;;;5029151;28;20046;-84
2023/08/31 01:23:41;;;;;;;9.05;5.90;;;17.60;99.90;;;;;;5030880;28;20491;-80
2023/08/31 01:26:07;;;;;;;14.43;8.55;;;17.50;99.90;;;;;;5016706;28;20072;-81
2023/08/31 01:28:33;;;;;;;18.08;11.88;;;17.50;99.90;;;;;;5034499;28;20080;-83
2023/08/31 01:31:05;;;;;;;19.30;9.77;;;17.50;99.90;;;;;;5014542;28;20489;-81
2023/08/31 01:33:31;;;;;;;7.43;4.72;;;17.50;99.90;;;;;;5014874;28;20449;-83
2023/08/31 01:35:59;;;;;;;11.88;4.80;;;17.50;99.90;;;;;;5034284;28;20025;-83
2023/08/31 01:38:30;;;;;;;7.78;4.70;;;17.50;99.90;;;;;;4999978;28;20045;-82
2023/08/31 01:41:00;;;;;;;8.88;5.30;;;17.40;99.90;;;;;;5019762;28;20485;-84
2023/08/31 01:43:28;;;;;;;8.40;4.60;;;17.50;99.90;;;;;;5029130;28;20079;-84
2023/08/31 01:45:54;;;;;;;8.10;5.13;;;17.40;99.90;;;;;;5028567;28;20041;-80
2023/08/31 01:48:20;;;;;;;9.35;4.90;;;17.50;99.90;;;;;;5030569;28;20022;-82
2023/08/31 01:50:46;;;;;;;6.25;4.55;;;17.50;99.90;;;;;;5030638;28;20622;-83
2023/08/31 01:53:12;;;;;;;14.27;9.13;;;17.30;99.90;;;;;;5033252;28;20029;-83
2023/08/31 01:55:39;;;;;;;16.55;7.43;;;17.20;99.90;;;;;;5007849;28;20393;-82
2023/08/31 01:58:05;;;;;;;12.88;7.85;;;17.20;99.90;;;;;;5012991;28;20037;-79
2023/08/31 02:00:34;;;;;;;12.75;7.50;;;17.10;99.90;;;;;;5016145;28;20021;-83
2023/08/31 02:03:01;;;;;;;11.05;6.45;;;17.10;99.90;;;;;;5015849;28;20123;-84
2023/08/31 02:05:27;;;;;;;12.60;5.70;;;17.10;99.90;;;;;;5018768;28;20041;-84
2023/08/31 02:07:53;;;;;;;13.50;6.40;;;17.00;99.90;;;;;;5036247;28;20080;-84
2023/08/31 02:10:19;;;;;;;9.85;5.30;;;17.00;99.90;;;;;;5034029;28;20034;-83
2023/08/31 02:12:44;;;;;;;9.18;5.65;;;17.00;99.90;;;;;;5033907;28;20061;-82
2023/08/31 02:15:10;;;;;;;11.68;6.03;;;17.00;99.90;;;;;;5015812;28;20515;-80
2023/08/31 02:17:36;;;;;;;11.70;6.72;;;17.10;99.90;;;;;;5033558;28;20018;-81
2023/08/31 02:20:08;;;;;;;13.07;6.80;;;17.20;99.90;;;;;;5009534;28;20041;-82
2023/08/31 02:22:37;;;;;;;;;;;17.20;99.90;;;;;;5016163;28;20087;-83
2023/08/31 02:25:06;;;;;;;10.55;6.30;;;17.20;99.90;;;;;;5015759;28;19964;-84
2023/08/31 02:27:32;;;;;;;9.85;5.95;;;17.20;99.90;;;;;;5031421;28;20380;-83
2023/08/31 02:29:58;;;;;;;10.77;5.53;;;17.10;99.90;;;;;;5018796;28;20113;-84
2023/08/31 02:32:23;;;;;;;10.45;6.53;;;17.00;99.90;;;;;;5030027;28;20077;-84
2023/08/31 02:34:50;;;;;;;12.77;7.13;;;17.00;99.90;;;;;;5012957;28;20044;-85
2023/08/31 02:37:16;;;;;;;17.85;10.88;;;17.00;99.90;;;;;;5030886;28;20615;-83
2023/08/31 02:39:42;;;;;;;18.15;12.38;;;17.00;99.90;;;;;;5033651;28;20100;-82
2023/08/31 02:42:08;;;;;;;15.98;10.40;;;17.00;99.90;;;;;;5033394;28;20022;-83
2023/08/31 02:44:34;;;;;;;13.40;8.93;;;17.00;99.90;;;;;;5033238;28;20049;-84
2023/08/31 02:47:00;;;;;;;14.77;7.65;;;16.90;99.90;;;;;;5033344;28;20029;-83
2023/08/31 02:49:26;;;;;;;12.60;7.55;;;16.90;99.90;;;;;;5033617;28;20044;-81
2023/08/31 02:51:51;;;;;;;11.82;6.80;;;16.90;99.90;;;;;;5015382;28;20025;-81
2023/08/31 02:54:19;;;;;;;12.07;7.25;;;16.80;99.90;;;;;;5015058;28;20030;-84
2023/08/31 02:56:44;;;;;;;13.18;7.35;;;16.70;99.90;;;;;;5033044;28;20100;-83
2023/08/31 02:59:12;;;;;;;13.80;8.10;;;16.80;99.90;;;;;;5014953;28;20113;-83
2023/08/31 03:01:39;;;;;;;13.27;6.90;;;16.80;99.90;;;;;;5033555;28;20037;-80
2023/08/31 03:04:05;;;;;;;11.43;7.00;;;16.80;99.90;;;;;;5032685;28;20037;-84
2023/08/31 03:06:32;;;;;;;16.30;7.75;;;16.80;99.90;;;;;;5033207;28;20029;-83
2023/08/31 03:08:58;;;;;;;12.35;7.25;;;16.80;99.90;;;;;;5032565;28;20025;-84
2023/08/31 03:11:24;;;;;;;15.38;8.23;;;16.80;99.90;;;;;;5015442;28;20420;-83
2023/08/31 03:13:50;;;;;;;13.50;9.02;;;16.70;99.90;;;;;;5012846;28;20029;-83
2023/08/31 03:16:16;;;;;;;14.27;8.82;;;16.80;99.90;;;;;;4997948;28;20092;-81
2023/08/31 03:18:41;;;;;;;14.88;8.48;;;16.80;99.90;;;;;;5011671;28;20025;-83
2023/08/31 03:21:09;;;;;;;17.25;9.18;;;16.80;99.90;;;;;;5014312;28;20057;-82
2023/08/31 03:23:35;;;;;;;15.57;9.00;;;16.90;99.90;;;;;;5010110;28;20048;-86
2023/08/31 03:26:07;;;;;;;13.10;8.00;;;16.90;99.90;;;;;;5032182;28;20034;-84
2023/08/31 03:28:33;;;;;;;16.20;8.68;;;16.80;99.90;;;;;;5032771;28;20026;-81
2023/08/31 03:30:59;;;;;;;13.48;8.63;;;16.60;99.90;;;;;;5031888;28;20029;-85
2023/08/31 03:33:25;;;;;;;14.10;8.50;;;16.60;99.90;;;;;;5015060;28;20044;-83
2023/08/31 03:35:51;;;;;;;20.30;8.60;;;16.60;99.90;;;;;;5014216;28;20029;-84
2023/08/31 03:38:17;;;;;;;15.20;8.57;;;16.60;99.90;;;;;;5012205;28;20157;-81
2023/08/31 03:40:51;;;;;;;14.57;8.05;;;16.70;99.90;;;;;;5014596;28;20125;-80
2023/08/31 03:43:17;;;;;;;13.27;7.93;;;16.70;99.90;;;;;;5032188;28;20029;-81
2023/08/31 03:45:44;;;;;;;12.60;8.23;;;16.70;99.90;;;;;;5014456;28;20094;-79
2023/08/31 03:48:10;;;;;;;15.00;7.68;;;16.80;99.90;;;;;;5014182;28;20033;-82
2023/08/31 03:50:37;;;;;;;15.77;7.82;;;16.90;99.90;;;;;;5014714;28;20030;-79
2023/08/31 03:53:05;;;;;;;10.93;6.88;;;17.00;99.90;;;;;;5031813;28;20024;-78
2023/08/31 03:55:31;;;;;;;13.55;7.60;;;17.00;99.90;;;;;;5030738;28;20025;-82
2023/08/31 03:57:57;;;;;;;12.93;6.95;;;16.90;99.90;;;;;;5014252;28;20021;-80
2023/08/31 04:00:23;;;;;;;11.45;6.93;;;16.80;99.90;;;;;;5013385;28;20558;-79
2023/08/31 04:02:48;;;;;;;14.25;6.82;;;16.80;99.90;;;;;;5031028;28;20047;-84
2023/08/31 04:05:19;;;;;;;14.13;7.03;;;16.80;99.90;;;;;;5013561;28;20061;-79
2023/08/31 04:07:45;;;;;;;11.07;7.68;;;16.80;99.90;;;;;;5014418;28;20056;-79
2023/08/31 04:10:11;;;;;;;10.75;7.57;;;17.00;99.90;;;;;;5031785;28;20029;-78
2023/08/31 04:12:36;;;;;;;8.95;5.88;;;17.00;99.90;;;;;;5031790;28;20025;-79
2023/08/31 04:15:04;;;;;;;11.55;6.25;;;17.00;99.90;;;;;;5028093;28;20034;-83
2023/08/31 04:17:29;;;;;;;9.55;5.93;;;17.20;99.90;;;;;;5033531;28;20049;-78
2023/08/31 04:19:55;;;;;;;8.38;5.63;;;17.30;99.90;;;;;;5034118;28;20087;-87
2023/08/31 04:22:21;;;;;;;18.80;6.70;;;17.50;99.90;;;;;;5037910;28;20017;-85
2023/08/31 04:24:47;;;;;;;13.73;6.45;;;17.80;99.90;;;;;;5023183;28;20032;-85
2023/08/31 04:27:13;;;;;;;10.30;6.07;;;17.90;99.90;;;;;;5016564;28;20527;-80
2023/08/31 04:29:39;;;;;;;9.57;6.32;;;17.80;99.90;;;;;;5029765;28;20018;-78
2023/08/31 04:32:05;;;;;;;9.45;6.28;;;18.10;99.90;;;;;;5031595;28;20369;-79
2023/08/31 04:34:31;;;;;;;18.10;9.60;;;18.10;99.90;;;;;;5029995;28;20104;-80
2023/08/31 04:36:57;;;;;;;18.00;10.73;;;18.00;99.90;;;;;;5031028;28;20431;-79
2023/08/31 04:39:22;;;;;;;19.48;11.65;;;18.10;99.90;;;;;;5031324;28;20208;-79
2023/08/31 04:41:48;;;;;;;20.08;10.85;;;18.10;99.90;;;;;;5031510;28;20037;-79
2023/08/31 04:44:14;;;;;;;22.55;12.82;;;17.80;99.90;;;;;;5031632;28;20060;-81
2023/08/31 04:46:41;;;;;;;23.40;13.45;;;17.70;99.90;;;;;;5031289;28;20034;-80
2023/08/31 04:49:08;;;;;;;23.65;14.85;;;17.70;99.90;;;;;;5031739;28;20049;-81
2023/08/31 04:51:37;;;;;;;26.52;15.13;;;17.70;99.90;;;;;;5031000;28;20033;-83
2023/08/31 04:54:02;;;;;;;24.83;14.45;;;17.60;99.90;;;;;;5031135;28;20056;-79
2023/08/31 04:56:32;;;;;;;23.30;13.45;;;17.50;99.90;;;;;;5031447;28;20118;-82
2023/08/31 04:58:58;;;;;;;22.92;13.40;;;17.50;99.90;;;;;;5033388;28;20037;-79
2023/08/31 05:01:23;;;;;;;26.13;13.02;;;17.60;99.90;;;;;;5034366;28;20033;-79
2023/08/31 05:03:49;;;;;;;21.40;12.90;;;17.70;99.90;;;;;;5033148;28;20112;-83
2023/08/31 05:06:15;;;;;;;20.70;12.48;;;17.70;99.90;;;;;;5033605;28;20037;-79
2023/08/31 05:08:41;;;;;;;31.88;14.50;;;17.50;99.90;;;;;;5032714;28;20049;-80
2023/08/31 05:11:07;;;;;;;23.38;13.20;;;17.40;99.90;;;;;;5034735;28;20495;-83
2023/08/31 05:13:33;;;;;;;21.42;12.77;;;17.50;99.90;;;;;;5033897;28;20246;-80
2023/08/31 05:15:59;;;;;;;26.33;14.45;;;17.40;99.90;;;;;;5033165;28;20038;-79
2023/08/31 05:18:25;;;;;;;23.88;13.35;;;17.70;99.90;;;;;;5025150;28;20034;-85
2023/08/31 05:20:51;;;;;;;22.10;13.50;;;17.70;99.90;;;;;;5034036;28;20029;-79
2023/08/31 05:23:17;;;;;;;21.13;12.70;;;17.80;99.90;;;;;;5035046;28;20026;-80
2023/08/31 05:25:46;;;;;;;21.17;13.85;;;17.90;99.90;;;;;;5034508;28;20048;-84
2023/08/31 05:28:11;;;;;;;24.85;14.20;;;17.90;99.90;;;;;;5034937;28;20029;-83
2023/08/31 05:30:46;;;;;;;24.83;13.70;;;18.00;99.90;;;;;;5034543;28;20385;-79
2023/08/31 05:33:11;;;;;;;20.65;12.82;;;18.00;99.90;;;;;;5034989;28;20504;-79
2023/08/31 05:35:37;;;;;;;22.98;12.60;;;18.00;99.90;;;;;;5034299;28;20018;-81
2023/08/31 05:38:03;;;;;;;21.02;12.73;;;18.00;99.90;;;;;;5034805;28;20044;-79
2023/08/31 05:40:29;;;;;;;19.05;12.23;;;18.00;99.90;;;;;;5034144;28;20042;-81
2023/08/31 05:42:55;;;;;;;21.65;12.60;;;18.00;99.90;;;;;;5034480;28;20029;-84
2023/08/31 05:45:20;;;;;;;21.23;12.98;;;18.10;99.90;;;;;;5034153;28;20100;-79
2023/08/31 05:47:46;;;;;;;20.83;12.77;;;18.20;99.90;;;;;;5034524;28;20028;-79
2023/08/31 05:50:12;;;;;;;27.75;14.23;;;18.20;99.90;;;;;;5034269;28;20032;-79
2023/08/31 05:52:38;;;;;;;24.02;13.80;;;18.50;99.90;;;;;;5034193;28;20503;-80
2023/08/31 05:55:04;;;;;;;20.02;11.77;;;18.80;99.90;;;;;;5034123;28;20086;-80
2023/08/31 05:57:30;;;;;;;23.85;13.35;;;18.90;99.90;;;;;;5034415;28;20378;-79
2023/08/31 05:59:56;;;;;;;19.50;10.57;;;19.20;99.90;;;;;;5034177;28;20036;-83
2023/08/31 06:02:22;;;;;;;20.38;10.77;;;19.40;99.90;;;;;;5016147;28;20092;-84
2023/08/31 06:04:47;;;;;;;18.08;11.77;;;19.60;99.90;;;;;;5016331;28;20067;-80
2023/08/31 06:07:13;;;;;;;17.60;10.50;;;19.80;99.90;;;;;;5033998;28;20062;-79
2023/08/31 06:09:39;;;;;;;18.63;11.55;;;19.90;99.90;;;;;;5031975;28;20026;-83
2023/08/31 06:12:06;;;;;;;15.20;10.57;;;19.90;99.90;;;;;;5034365;28;20388;-82
2023/08/31 06:14:32;;;;;;;25.38;13.95;;;20.00;99.90;;;;;;5034189;28;20025;-83
2023/08/31 06:16:58;;;;;;;20.77;10.63;;;20.10;99.90;;;;;;5034035;28;20061;-83
2023/08/31 06:19:24;;;;;;;22.08;10.65;;;20.20;99.90;;;;;;5033633;28;20080;-83
2023/08/31 06:21:50;;;;;;;17.67;11.38;;;20.20;99.90;;;;;;5034062;28;20021;-82
2023/08/31 06:24:16;;;;;;;17.45;11.25;;;20.40;99.90;;;;;;5033349;28;20041;-80
2023/08/31 06:26:41;;;;;;;18.80;12.27;;;20.50;99.90;;;;;;5033825;28;20057;-78
2023/08/31 06:29:11;;;;;;;15.70;10.85;;;20.50;99.90;;;;;;5033350;28;20021;-84
2023/08/31 06:31:36;;;;;;;16.30;11.75;;;20.60;99.90;;;;;;5033795;28;20033;-83
2023/08/31 06:34:04;;;;;;;18.75;12.45;;;20.50;99.90;;;;;;5033394;28;20024;-83
2023/08/31 06:36:30;;;;;;;21.20;13.05;;;20.50;99.90;;;;;;5033858;28;20033;-82
2023/08/31 06:38:55;;;;;;;17.40;11.23;;;20.50;99.90;;;;;;5033672;28;20021;-80
2023/08/31 06:41:21;;;;;;;16.88;11.50;;;20.60;99.90;;;;;;5033535;28;20029;-83
2023/08/31 06:43:47;;;;;;;24.25;13.30;;;20.60;99.90;;;;;;5033526;28;20067;-82
2023/08/31 06:46:13;;;;;;;23.50;12.95;;;20.60;99.90;;;;;;5033234;28;20128;-82
2023/08/31 06:48:38;;;;;;;20.83;12.43;;;20.60;99.90;;;;;;5033418;28;20045;-83
2023/08/31 06:51:04;;;;;;;24.83;12.18;;;20.80;99.90;;;;;;5033482;28;20052;-82
2023/08/31 06:53:33;;;;;;;17.75;11.85;;;21.00;99.90;;;;;;5033369;28;20013;-81
2023/08/31 06:55:59;;;;;;;17.35;11.35;;;21.10;99.90;;;;;;5033173;28;20381;-79
2023/08/31 06:58:24;;;;;;;19.90;12.52;;;21.20;99.90;;;;;;5033204;28;20032;-80
2023/08/31 07:00:50;;;;;;;20.10;12.38;;;21.20;99.90;;;;;;5032995;28;20477;-80
2023/08/31 07:03:16;;;;;;;19.05;14.25;;;21.30;99.90;;;;;;5014347;28;20532;-80
2023/08/31 07:05:43;;;;;;;19.42;12.45;;;21.30;99.90;;;;;;5031175;28;20095;-80
2023/08/31 07:08:08;;;;;;;18.05;12.65;;;21.60;99.90;;;;;;5033006;28;20366;-82
2023/08/31 07:10:38;;;;;;;20.20;12.88;;;21.70;99.90;;;;;;5032613;28;20028;-81
2023/08/31 07:13:04;;;;;;;18.95;14.27;;;21.80;99.90;;;;;;5032817;28;20119;-81
2023/08/31 07:15:31;;;;;;;21.05;13.57;;;21.50;99.90;;;;;;5032805;28;20021;-82
2023/08/31 07:17:57;;;;;;;21.23;12.77;;;21.70;99.90;;;;;;5032567;28;20369;-79
2023/08/31 07:20:23;;;;;;;22.20;13.20;;;21.70;99.90;;;;;;5032267;28;20499;-81
2023/08/31 07:22:48;;;;;;;18.17;13.43;;;21.60;99.90;;;;;;5032192;28;20045;-82
2023/08/31 07:25:14;;;;;;;18.77;13.02;;;21.40;99.90;;;;;;5032297;28;20116;-79
2023/08/31 07:27:40;;;;;;;19.20;11.43;;;21.40;99.90;;;;;;5032423;28;20381;-81
2023/08/31 07:30:06;;;;;;;18.35;12.52;;;21.60;99.90;;;;;;5032327;28;20029;-81
2023/08/31 07:32:32;;;;;;;22.17;15.57;;;21.60;99.90;;;;;;5033031;28;20029;-81
2023/08/31 07:34:59;;;;;;;20.55;15.25;;;21.40;99.90;;;;;;5032357;28;20101;-81
2023/08/31 07:37:24;;;;;;;21.92;15.05;;;21.40;99.90;;;;;;5032402;28;20534;-82
2023/08/31 07:39:51;;;;;;;19.98;11.43;;;21.60;99.90;;;;;;5032186;28;20029;-81
2023/08/31 07:42:16;;;;;;;16.27;9.32;;;21.60;99.90;;;;;;5032392;28;20026;-82
2023/08/31 07:44:44;;;;;;;26.65;10.48;;;21.20;99.90;;;;;;5032049;28;20503;-81
2023/08/31 07:47:10;;;;;;;23.10;11.85;;;21.40;99.90;;;;;;5032168;28;20034;-82
2023/08/31 07:49:35;;;;;;;28.52;13.43;;;21.30;99.90;;;;;;5032008;28;20034;-80
2023/08/31 07:52:02;;;;;;;20.48;12.05;;;21.60;99.90;;;;;;5032132;28;20029;-82
2023/08/31 07:54:29;;;;;;;17.60;11.75;;;21.60;99.90;;;;;;5032197;28;20105;-79
2023/08/31 07:56:54;;;;;;;19.38;10.48;;;21.70;99.90;;;;;;5031765;28;20369;-84
2023/08/31 07:59:20;;;;;;;17.83;11.07;;;21.60;99.90;;;;;;5032238;28;20040;-82
2023/08/31 08:01:47;;;;;;;15.57;9.05;;;21.80;99.90;;;;;;5031699;28;20028;-81
2023/08/31 08:04:13;;;;;;;14.60;9.20;;;21.80;99.90;;;;;;5032166;28;20052;-81
2023/08/31 08:06:39;;;;;;;16.65;8.57;;;21.80;99.90;;;;;;5031455;28;20025;-80
2023/08/31 08:09:04;;;;;;;13.68;7.90;;;22.00;99.90;;;;;;5032090;28;20021;-81
2023/08/31 08:11:31;;;;;;;14.52;7.30;;;22.30;99.90;;;;;;5031537;28;20025;-81
2023/08/31 08:13:56;;;;;;;13.23;6.53;;;22.50;99.90;;;;;;5032385;28;20021;-82
2023/08/31 08:16:23;;;;;;;19.63;8.27;;;22.20;99.90;;;;;;5013832;28;20034;-81
2023/08/31 08:18:50;;;;;;;16.83;7.88;;;22.40;99.90;;;;;;5031758;28;20022;-81
2023/08/31 08:21:16;;;;;;;13.07;6.43;;;22.30;99.90;;;;;;5031769;28;20025;-81
2023/08/31 08:23:41;;;;;;;15.48;6.38;;;22.50;99.90;;;;;;5031830;28;20492;-80
2023/08/31 08:26:07;;;;;;;13.05;6.32;;;22.40;99.90;;;;;;5031381;28;20044;-80
2023/08/31 08:28:33;;;;;;;13.23;6.70;;;22.60;99.90;;;;;;5031824;28;20116;-81
2023/08/31 08:31:03;;;;;;;13.90;6.05;;;22.10;99.90;;;;;;5031635;28;20030;-82
2023/08/31 08:33:29;;;;;;;11.95;6.45;;;22.00;99.90;;;;;;5032980;28;20045;-81
2023/08/31 08:35:58;;;;;;;11.35;6.43;;;21.90;99.90;;;;;;5035439;28;20409;-82
2023/08/31 08:38:25;;;;;;;17.77;7.28;;;21.90;99.90;;;;;;5035734;28;20033;-80
2023/08/31 08:40:51;;;;;;;13.35;6.93;;;22.10;99.90;;;;;;5035522;28;20038;-81
2023/08/31 08:43:24;;;;;;;10.30;6.57;;;22.20;99.90;;;;;;5035825;28;20018;-81
2023/08/31 08:45:51;;;;;;;14.18;6.05;;;22.00;99.90;;;;;;5035445;28;20405;-79
2023/08/31 08:48:18;;;;;;;11.90;6.88;;;22.30;99.90;;;;;;5035414;28;20466;-78
2023/08/31 08:50:45;;;;;;;9.15;5.75;;;22.60;99.90;;;;;;5035336;28;20096;-79
2023/08/31 08:53:11;;;;;;;8.73;5.45;;;22.70;99.90;;;;;;5035505;28;20377;-79
2023/08/31 08:55:37;;;;;;;10.23;5.78;;;22.70;99.90;;;;;;5035331;28;20037;-80
2023/08/31 08:58:03;;;;;;;8.75;5.57;;;22.40;99.90;;;;;;5035485;28;20033;-78
2023/08/31 09:00:30;;;;;;;9.90;5.25;;;22.70;99.90;;;;;;5035292;28;20079;-78
2023/08/31 09:02:56;;;;;;;8.55;4.82;;;22.80;99.90;;;;;;5035022;28;20079;-79
2023/08/31 09:05:22;;;;;;;7.05;3.95;;;23.00;99.90;;;;;;5035288;28;20141;-78
2023/08/31 09:08:12;;;;;;;7.88;4.10;;;22.40;99.90;;;;;;5035248;28;20029;-78
2023/08/31 09:10:40;;;;;;;7.95;5.07;;;23.00;99.90;;;;;;5035353;28;20090;-78
2023/08/31 09:13:10;;;;;;;12.43;5.15;;;23.30;99.90;;;;;;5035185;28;20049;-78
2023/08/31 09:15:47;;;;;;;8.07;4.90;;;23.30;99.90;;;;;;5034744;28;20041;-79
2023/08/31 09:18:35;;;;;;;9.20;5.15;;;23.60;99.90;;;;;;5035034;28;20088;-78
2023/08/31 09:21:01;;;;;;;8.23;5.07;;;23.70;99.90;;;;;;5016941;28;20445;-79
2023/08/31 09:23:27;;;;;;;6.63;4.53;;;23.90;99.90;;;;;;5035147;28;20021;-77
2023/08/31 09:25:54;;;;;;;7.32;4.05;;;23.90;99.90;;;;;;5034849;28;20099;-78
2023/08/31 09:28:28;;;;;;;7.85;4.05;;;23.80;99.90;;;;;;5035210;28;20030;-78
2023/08/31 09:31:07;;;;;;;16.70;3.85;;;24.00;99.90;;;;;;5034849;28;20393;-78
2023/08/31 09:33:36;;;;;;;8.13;4.00;;;24.10;99.90;;;;;;5035009;28;20033;-79
2023/08/31 09:36:03;;;;;;;4.57;3.38;;;24.00;99.90;;;;;;5035008;28;20092;-78
2023/08/31 09:38:29;;;;;;;5.63;3.78;;;24.00;99.90;;;;;;5035116;28;20523;-77
2023/08/31 09:41:08;;;;;;;5.28;3.05;;;23.90;99.90;;;;;;5034609;28;20527;-78
2023/08/31 09:43:34;;;;;;;4.50;2.75;;;24.00;99.90;;;;;;5034814;28;20033;-78
2023/08/31 09:46:02;;;;;;;5.78;3.05;;;24.00;99.90;;;;;;5035213;28;20128;-78
2023/08/31 09:48:29;;;;;;;6.30;3.40;;;24.10;99.90;;;;;;5034684;28;20026;-78
2023/08/31 09:50:56;;;;;;;9.88;3.63;;;24.40;99.90;;;;;;5034690;28;20028;-77
2023/08/31 09:53:24;;;;;;;5.03;3.20;;;24.50;99.90;;;;;;5034289;28;20033;-77
2023/08/31 09:55:51;;;;;;;7.40;3.85;;;24.30;99.50;;;;;;5035028;28;20104;-77
2023/08/31 09:58:20;;;;;;;8.38;3.58;;;24.20;99.90;;;;;;5034023;28;20030;-78
2023/08/31 10:00:50;;;;;;;4.80;3.05;;;24.10;98.90;;;;;;5016656;28;20029;-77
2023/08/31 10:03:16;;;;;;;4.45;2.78;;;24.00;99.90;;;;;;5034125;28;20028;-78
2023/08/31 10:05:47;;;;;;;8.40;3.65;;;24.20;99.50;;;;;;5034539;28;20025;-78
2023/08/31 10:08:14;;;;;;;5.20;3.27;;;24.20;99.90;;;;;;5034085;28;20029;-78
2023/08/31 10:10:41;;;;;;;8.77;3.80;;;24.50;99.10;;;;;;5033970;28;20026;-78
2023/08/31 10:13:07;;;;;;;4.93;2.80;;;24.80;99.90;;;;;;5016271;28;20033;-79
2023/08/31 10:15:37;;;;;;;5.80;2.65;;;25.00;98.70;;;;;;5033995;28;20065;-78
2023/08/31 10:18:05;;;;;;;6.40;2.83;;;25.10;98.30;;;;;;5033910;28;20033;-78
2023/08/31 10:20:31;;;;;;;5.03;2.80;;;25.00;96.20;;;;;;5033903;28;20026;-77
2023/08/31 10:22:58;;;;;;;4.78;3.28;;;25.20;98.80;;;;;;5034019;28;20029;-78
2023/08/31 10:25:26;;;;;;;6.47;3.00;;;25.10;96.80;;;;;;5034018;28;20087;-77
2023/08/31 10:27:52;;;;;;;5.50;3.60;;;25.20;97.20;;;;;;5033624;28;20038;-78
2023/08/31 10:30:27;;;;;;;7.40;2.67;;;25.30;97.00;;;;;;5033780;28;20033;-79
2023/08/31 10:33:07;;;;;;;7.80;3.85;;;25.30;96.50;;;;;;5021096;28;20022;-78
2023/08/31 10:35:49;;;;;;;7.55;3.17;;;25.10;96.50;;;;;;5033676;28;20029;-80
2023/08/31 10:38:15;;;;;;;6.60;3.40;;;25.20;96.00;;;;;;5034143;28;20033;-78
2023/08/31 10:40:41;;;;;;;5.20;3.30;;;25.00;95.20;;;;;;5015442;28;20437;-78
2023/08/31 10:43:16;;;;;;;4.78;3.33;;;24.80;95.50;;;;;;5033964;28;20190;-78
2023/08/31 10:45:45;;;;;;;8.77;3.42;;;24.80;97.00;;;;;;5033203;28;20037;-78
2023/08/31 10:48:11;;;;;;;6.18;3.25;;;24.60;96.80;;;;;;5033805;28;20025;-78
2023/08/31 10:50:47;;;;;;;5.10;3.30;;;24.70;97.70;;;;;;5033179;28;20027;-78
2023/08/31 10:53:13;;;;;;;5.47;3.47;;;24.80;96.30;;;;;;5032945;28;20029;-78
2023/08/31 10:55:55;;;;;;;6.10;3.30;;;24.90;95.90;;;;;;4997997;28;20056;-77
2023/08/31 10:58:21;;;;;;;4.78;2.92;;;25.00;95.50;;;;;;5033032;28;20080;-79
2023/08/31 11:00:55;;;;;;;7.60;3.42;;;25.10;95.40;;;;;;5033344;28;20030;-79
2023/08/31 11:03:21;;;;;;;6.57;3.42;;;25.30;96.30;;;;;;5032896;28;20084;-78
2023/08/31 11:05:52;;;;;;;5.68;3.38;;;25.30;96.40;;;;;;5032716;28;20033;-79
2023/08/31 11:08:23;;;;;;;6.22;3.08;;;25.40;96.00;;;;;;5033014;28;20029;-79
2023/08/31 11:10:49;;;;;;;3.53;2.83;;;25.40;94.50;;;;;;5032487;28;20469;-80
2023/08/31 11:13:24;;;;;;;5.40;3.42;;;25.10;93.20;;;;;;5032818;28;20462;-76
2023/08/31 11:15:51;;;;;;;5.63;3.53;;;25.10;92.70;;;;;;5032859;28;20034;-77
2023/08/31 11:18:21;;;;;;;5.18;3.33;;;24.90;93.50;;;;;;5032862;28;20104;-79
2023/08/31 11:20:48;;;;;;;7.50;3.08;;;24.90;95.10;;;;;;5033046;28;20068;-76
2023/08/31 11:23:15;;;;;;;5.10;3.40;;;24.90;95.00;;;;;;5033012;28;20120;-77
2023/08/31 11:25:40;;;;;;;6.65;3.65;;;24.70;95.50;;;;;;5032512;28;20392;-77
2023/08/31 11:28:07;;;;;;;4.60;3.03;;;24.80;93.60;;;;;;5032939;28;20036;-77
2023/08/31 11:30:34;;;;;;;5.63;2.70;;;24.70;92.90;;;;;;5032334;28;20025;-77
2023/08/31 11:33:05;;;;;;;7.47;3.10;;;24.90;93.60;;;;;;5032547;28;20074;-77
2023/08/31 11:35:41;;;;;;;5.45;2.92;;;25.00;94.20;;;;;;5032507;28;20029;-78
2023/08/31 11:38:07;;;;;;;4.72;3.20;;;24.90;94.50;;;;;;5032625;28;20152;-77
2023/08/31 11:40:33;;;;;;;6.38;3.42;;;24.90;93.70;;;;;;5032442;28;20104;-77
2023/08/31 11:43:03;;;;;;;5.45;3.33;;;25.10;95.30;;;;;;5032739;28;20029;-77
2023/08/31 11:45:30;;;;;;;4.85;2.78;;;25.20;94.30;;;;;;5031849;28;20085;-78
2023/08/31 11:47:57;;;;;;;6.00;3.25;;;25.30;94.30;;;;;;5032523;28;20032;-78
2023/08/31 11:50:24;;;;;;;7.20;3.33;;;25.00;94.10;;;;;;5032020;28;20049;-78
2023/08/31 11:52:53;;;;;;;4.32;2.10;;;24.90;92.90;;;;;;5032407;28;20021;-78
2023/08/31 11:55:19;;;;;;;8.45;3.15;;;24.70;92.90;;;;;;5032100;28;20036;-78
2023/08/31 11:57:52;;;;;;;3.05;2.50;;;24.80;93.80;;;;;;5031944;28;20018;-78
2023/08/31 12:00:22;;;;;;;3.97;2.47;;;25.00;93.70;;;;;;5031841;28;20067;-78
2023/08/31 12:02:59;;;;;;;4.28;2.40;;;25.00;92.70;;;;;;5032062;28;20073;-78
2023/08/31 12:05:26;;;;;;;6.93;2.70;;;24.80;92.40;;;;;;5020232;28;20044;-77
2023/08/31 12:07:54;;;;;;;6.60;2.80;;;24.90;92.80;;;;;;5031693;28;20021;-77
2023/08/31 12:10:20;;;;;;;4.97;2.35;;;25.10;93.10;;;;;;5032028;28;20037;-78
2023/08/31 12:12:46;;;;;;;2.63;1.83;;;25.20;92.10;;;;;;5031815;28;20021;-78
2023/08/31 12:15:12;;;;;;;4.70;2.53;;;25.20;92.40;;;;;;5031969;28;20473;-77
2023/08/31 12:17:43;;;;;;;5.45;2.53;;;25.10;92.30;;;;;;5031698;28;20025;-77
2023/08/31 12:20:09;;;;;;;2.77;2.20;;;25.20;93.60;;;;;;5032002;28;20041;-77
2023/08/31 12:22:35;;;;;;;3.95;2.15;;;25.10;93.00;;;;;;5031433;28;20555;-77
2023/08/31 12:25:01;;;;;;;4.10;2.30;;;25.20;92.40;;;;;;5031834;28;20129;-77
2023/08/31 12:27:27;;;;;;;4.35;2.30;;;25.10;92.40;;;;;;5031791;28;20022;-77
2023/08/31 12:29:53;;;;;;;2.72;1.98;;;25.10;91.90;;;;;;5031873;28;20114;-77
2023/08/31 12:32:19;;;;;;;4.93;2.15;;;25.20;92.00;;;;;;5031577;28;20030;-78
2023/08/31 12:34:45;;;;;;;4.00;2.15;;;25.20;91.80;;;;;;5032405;28;20361;-77
2023/08/31 12:37:10;;;;;;;2.63;2.10;;;25.40;92.90;;;;;;5031736;28;20038;-77
2023/08/31 12:39:37;;;;;;;4.53;2.40;;;25.40;93.10;;;;;;5031905;28;20036;-78